Time;durP1;ratioP1;P1;durP2;ratioP2;P2;SDS_P1;SDS_P2;PMS_P1;PMS_P2;Temp;Humidity;BMP_temperature;BMP_pressure;BME280_temperature;BME280_humidity;BME280_pressure;Samples;Min_cycle;Max_cycle;Signal;HPM_P1;HPM_P2
2022/03/24 00:02:34;;;;;;;;;36.50;33.50;;;;;;;;2;261074955;261074955;-84
2022/03/24 00:11:34;;;;;;;;;16.50;16.50;;;;;;;;2;261074218;261074218;-84
2022/03/24 00:19:50;;;;;;;;;34.00;28.50;;;;;;;;2;261073878;261073878;-83
2022/03/24 00:28:50;;;;;;;;;48.00;31.50;;;;;;;;2;261076184;261076184;-83
2022/03/24 00:37:06;;;;;;;;;44.00;33.50;;;;;;;;2;261077762;261077762;-84
2022/03/24 00:46:06;;;;;;;;;36.50;24.00;;;;;;;;2;261077170;261077170;-84
2022/03/24 00:54:21;;;;;;;;;38.50;34.00;;;;;;;;2;261076755;261076755;-83
2022/03/24 01:03:22;;;;;;;;;50.50;30.00;;;;;;;;2;261076768;261076768;-84
2022/03/24 01:11:37;;;;;;;;;40.50;36.00;;;;;;;;2;261075764;261075764;-83
2022/03/24 01:20:38;;;;;;;;;37.00;34.00;;;;;;;;2;261075307;261075307;-83
2022/03/24 01:28:54;;;;;;;;;40.50;29.00;;;;;;;;2;261075425;261075425;-83
2022/03/24 01:37:54;;;;;;;;;28.50;28.50;;;;;;;;2;261076287;261076287;-83
2022/03/24 01:46:09;;;;;;;;;48.50;36.50;;;;;;;;2;261077451;261077451;-83
2022/03/24 01:55:11;;;;;;;;;39.50;32.50;;;;;;;;2;261074408;261074408;-83
2022/03/24 02:03:27;;;;;;;;;40.00;31.50;;;;;;;;2;261076581;261076581;-83
2022/03/24 02:12:27;;;;;;;;;57.00;36.50;;;;;;;;2;261077291;261077291;-83
2022/03/24 02:20:43;;;;;;;;;33.00;31.50;;;;;;;;2;261079155;261079155;-83
2022/03/24 02:29:43;;;;;;;;;50.50;36.00;;;;;;;;2;261078355;261078355;-83
2022/03/24 02:37:59;;;;;;;;;40.00;27.50;;;;;;;;2;261074757;261074757;-83
2022/03/24 02:47:01;;;;;;;;;26.00;20.50;;;;;;;;2;261077096;261077096;-83
2022/03/24 02:55:16;;;;;;;;;37.00;25.50;;;;;;;;2;261077901;261077901;-83
2022/03/24 03:04:16;;;;;;;;;27.00;24.00;;;;;;;;2;261076330;261076330;-84
2022/03/24 03:12:32;;;;;;;;;25.50;21.50;;;;;;;;2;261076044;261076044;-83
2022/03/24 03:21:32;;;;;;;;;35.00;31.50;;;;;;;;2;261074403;261074403;-84
2022/03/24 03:29:48;;;;;;;;;26.50;26.00;;;;;;;;2;261076600;261076600;-83
2022/03/24 03:38:48;;;;;;;;;50.00;30.00;;;;;;;;2;261074278;261074278;-84
2022/03/24 03:47:05;;;;;;;;;32.00;25.00;;;;;;;;2;261075653;261075653;-84
2022/03/24 03:56:07;;;;;;;;;26.00;25.50;;;;;;;;2;261078161;261078161;-84
2022/03/24 04:04:22;;;;;;;;;31.00;25.50;;;;;;;;2;261073757;261073757;-84
2022/03/24 04:13:23;;;;;;;;;34.50;31.00;;;;;;;;2;261078810;261078810;-84
2022/03/24 04:21:38;;;;;;;;;38.00;25.00;;;;;;;;2;261078298;261078298;-83
2022/03/24 04:30:38;;;;;;;;;24.50;24.50;;;;;;;;2;261073737;261073737;-84
2022/03/24 04:38:54;;;;;;;;;43.50;31.00;;;;;;;;2;261074917;261074917;-84
2022/03/24 04:47:54;;;;;;;;;39.50;33.50;;;;;;;;2;261076155;261076155;-83
2022/03/24 04:56:10;;;;;;;;;49.00;31.00;;;;;;;;2;261076873;261076873;-83
2022/03/24 05:05:10;;;;;;;;;32.00;30.00;;;;;;;;2;261077831;261077831;-83
2022/03/24 05:13:26;;;;;;;;;37.00;28.00;;;;;;;;2;261074896;261074896;-84
2022/03/24 05:22:26;;;;;;;;;43.50;31.00;;;;;;;;2;261076869;261076869;-83
2022/03/24 05:30:42;;;;;;;;;50.00;33.50;;;;;;;;2;261077333;261077333;-83
2022/03/24 05:39:43;;;;;;;;;32.00;31.00;;;;;;;;2;261077120;261077120;-80
2022/03/24 05:47:59;;;;;;;;;37.00;32.00;;;;;;;;2;261074632;261074632;-84
2022/03/24 05:56:59;;;;;;;;;52.00;30.50;;;;;;;;2;261074570;261074570;-83
2022/03/24 06:05:15;;;;;;;;;34.50;29.50;;;;;;;;2;261077505;261077505;-84
2022/03/24 06:14:15;;;;;;;;;33.00;31.50;;;;;;;;2;261076947;261076947;-83
2022/03/24 06:22:39;;;;;;;;;28.00;28.00;;;;;;;;2;261079604;261079604;-82
2022/03/24 06:31:43;;;;;;;;;55.50;34.00;;;;;;;;2;261078658;261078658;-82
2022/03/24 06:39:58;;;;;;;;;41.50;36.50;;;;;;;;2;261074199;261074199;-86
2022/03/24 06:49:00;;;;;;;;;28.00;27.50;;;;;;;;2;261078819;261078819;-84
2022/03/24 06:57:15;;;;;;;;;40.50;26.50;;;;;;;;2;261086065;261086065;-85
2022/03/24 07:06:16;;;;;;;;;31.00;29.00;;;;;;;;2;261077346;261077346;-84
2022/03/24 07:14:31;;;;;;;;;44.50;27.00;;;;;;;;2;261076195;261076195;-83
2022/03/24 07:23:32;;;;;;;;;33.50;26.50;;;;;;;;2;261077410;261077410;-84
2022/03/24 07:31:48;;;;;;;;;48.50;33.50;;;;;;;;2;261079253;261079253;-86
2022/03/24 07:40:48;;;;;;;;;34.00;28.00;;;;;;;;2;261078740;261078740;-86
2022/03/24 07:49:04;;;;;;;;;32.50;31.50;;;;;;;;2;261076837;261076837;-85
2022/03/24 07:58:05;;;;;;;;;50.00;34.00;;;;;;;;2;261078327;261078327;-84
2022/03/24 08:06:21;;;;;;;;;46.50;33.50;;;;;;;;2;261076209;261076209;-85
2022/03/24 08:15:22;;;;;;;;;40.50;36.50;;;;;;;;2;261080330;261080330;-86
2022/03/24 08:23:37;;;;;;;;;33.00;24.50;;;;;;;;2;261075128;261075128;-86
2022/03/24 08:32:37;;;;;;;;;50.00;36.50;;;;;;;;2;261077844;261077844;-86
2022/03/24 08:40:53;;;;;;;;;47.50;36.00;;;;;;;;2;261077212;261077212;-86
2022/03/24 08:49:53;;;;;;;;;61.00;35.00;;;;;;;;2;261076666;261076666;-86
2022/03/24 08:58:10;;;;;;;;;47.00;39.00;;;;;;;;2;261074802;261074802;-86
2022/03/24 09:07:10;;;;;;;;;21.00;21.00;;;;;;;;2;261074222;261074222;-86
2022/03/24 09:15:26;;;;;;;;;36.00;33.50;;;;;;;;2;261076327;261076327;-84
2022/03/24 09:24:27;;;;;;;;;36.50;30.50;;;;;;;;2;261077428;261077428;-84
2022/03/24 09:32:42;;;;;;;;;40.50;36.00;;;;;;;;2;261076411;261076411;-84
2022/03/24 09:41:47;;;;;;;;;31.00;26.00;;;;;;;;2;261080218;261080218;-84
2022/03/24 09:50:03;;;;;;;;;43.50;36.50;;;;;;;;2;261080375;261080375;-85
2022/03/24 09:59:04;;;;;;;;;40.50;30.50;;;;;;;;2;261079003;261079003;-85
2022/03/24 10:07:23;;;;;;;;;37.00;34.00;;;;;;;;2;261077999;261077999;-85
2022/03/24 10:16:32;;;;;;;;;41.50;37.00;;;;;;;;2;261075991;261075991;-85
2022/03/24 10:24:48;;;;;;;;;49.00;37.00;;;;;;;;2;261077263;261077263;-85
2022/03/24 10:33:48;;;;;;;;;30.50;27.50;;;;;;;;2;261079038;261079038;-85
2022/03/24 10:42:20;;;;;;;;;36.50;33.50;;;;;;;;2;261076377;261076377;-85
2022/03/24 10:51:30;;;;;;;;;49.50;34.50;;;;;;;;2;261080500;261080500;-85
2022/03/24 10:59:46;;;;;;;;;52.50;40.50;;;;;;;;2;261074787;261074787;-85
2022/03/24 11:08:58;;;;;;;;;36.50;33.50;;;;;;;;2;261079500;261079500;-85
2022/03/24 11:17:13;;;;;;;;;34.00;31.50;;;;;;;;2;261077602;261077602;-84
2022/03/24 11:26:14;;;;;;;;;59.00;36.00;;;;;;;;2;261079692;261079692;-85
2022/03/24 11:34:29;;;;;;;;;36.50;33.50;;;;;;;;2;261077555;261077555;-85
2022/03/24 11:43:31;;;;;;;;;26.00;26.00;;;;;;;;2;261077013;261077013;-87
2022/03/24 11:51:48;;;;;;;;;29.50;29.50;;;;;;;;2;261077521;261077521;-87
2022/03/24 12:00:48;;;;;;;;;25.00;23.00;;;;;;;;2;261076890;261076890;-86
2022/03/24 12:09:04;;;;;;;;;48.50;32.50;;;;;;;;2;261074569;261074569;-87
2022/03/24 12:18:06;;;;;;;;;24.00;24.00;;;;;;;;2;261075576;261075576;-87
2022/03/24 12:26:22;;;;;;;;;32.00;31.00;;;;;;;;2;261076442;261076442;-86
2022/03/24 12:35:43;;;;;;;;;39.50;19.50;;;;;;;;2;261076778;261076778;-86
2022/03/24 12:44:03;;;;;;;;;39.00;34.00;;;;;;;;2;261074192;261074192;-86
2022/03/24 12:53:04;;;;;;;;;20.00;20.00;;;;;;;;2;261077948;261077948;-87
2022/03/24 13:01:19;;;;;;;;;46.50;27.00;;;;;;;;2;260759003;260759003;-86
2022/03/24 13:10:21;;;;;;;;;29.50;24.50;;;;;;;;2;261081424;261081424;-86
2022/03/24 13:18:37;;;;;;;;;35.00;26.50;;;;;;;;2;261074610;261074610;-86
2022/03/24 13:27:39;;;;;;;;;52.50;27.00;;;;;;;;2;261076216;261076216;-86
2022/03/24 13:35:54;;;;;;;;;31.00;30.00;;;;;;;;2;261077039;261077039;-86
2022/03/24 13:44:55;;;;;;;;;30.50;21.50;;;;;;;;2;261072548;261072548;-86
2022/03/24 13:53:15;;;;;;;;;20.00;20.00;;;;;;;;2;261077982;261077982;-86
2022/03/24 14:02:21;;;;;;;;;44.50;24.00;;;;;;;;2;261077919;261077919;-86
2022/03/24 14:10:51;;;;;;;;;40.00;33.50;;;;;;;;2;261077873;261077873;-86
2022/03/24 14:19:55;;;;;;;;;23.00;23.00;;;;;;;;2;261080107;261080107;-87
2022/03/24 14:28:28;;;;;;;;;31.00;28.00;;;;;;;;2;261076783;261076783;-85
2022/03/24 14:37:37;;;;;;;;;24.00;20.00;;;;;;;;2;261077136;261077136;-87
2022/03/24 14:45:53;;;;;;;;;30.00;24.50;;;;;;;;2;261074469;261074469;-87
2022/03/24 14:54:54;;;;;;;;;33.00;15.50;;;;;;;;2;261076186;261076186;-87
2022/03/24 15:03:09;;;;;;;;;38.00;26.00;;;;;;;;2;261078199;261078199;-87
2022/03/24 15:12:10;;;;;;;;;26.00;25.00;;;;;;;;2;261076663;261076663;-87
2022/03/24 15:20:27;;;;;;;;;31.00;24.00;;;;;;;;2;261075942;261075942;-86
2022/03/24 15:29:27;;;;;;;;;22.00;22.00;;;;;;;;2;261074468;261074468;-87
2022/03/24 15:37:43;;;;;;;;;29.50;20.50;;;;;;;;2;261075980;261075980;-87
2022/03/24 15:46:44;;;;;;;;;21.50;21.50;;;;;;;;2;261073823;261073823;-85
2022/03/24 15:54:59;;;;;;;;;40.50;28.00;;;;;;;;2;261072453;261072453;-86
2022/03/24 16:04:00;;;;;;;;;12.50;12.50;;;;;;;;2;261075964;261075964;-85
2022/03/24 16:12:15;;;;;;;;;34.50;22.50;;;;;;;;2;261073183;261073183;-85
2022/03/24 16:21:16;;;;;;;;;14.50;14.50;;;;;;;;2;261078011;261078011;-86
2022/03/24 16:29:31;;;;;;;;;18.50;18.50;;;;;;;;2;261073949;261073949;-87
2022/03/24 16:38:32;;;;;;;;;15.00;15.00;;;;;;;;2;261076637;261076637;-87
2022/03/24 16:46:49;;;;;;;;;25.00;19.50;;;;;;;;2;261078463;261078463;-87
2022/03/24 16:55:49;;;;;;;;;23.50;21.50;;;;;;;;2;261075473;261075473;-86
2022/03/24 17:04:04;;;;;;;;;28.00;23.50;;;;;;;;2;261072583;261072583;-86
2022/03/24 17:13:05;;;;;;;;;29.50;18.00;;;;;;;;2;261079580;261079580;-85
2022/03/24 17:21:20;;;;;;;;;20.50;17.50;;;;;;;;2;261078504;261078504;-85
2022/03/24 17:30:21;;;;;;;;;23.50;21.00;;;;;;;;2;261074381;261074381;-85
2022/03/24 17:38:37;;;;;;;;;22.00;22.00;;;;;;;;2;261084293;261084293;-87
2022/03/24 17:47:39;;;;;;;;;14.00;14.00;;;;;;;;2;261080497;261080497;-86
2022/03/24 17:55:54;;;;;;;;;20.50;20.50;;;;;;;;2;261075594;261075594;-84
2022/03/24 18:04:55;;;;;;;;;17.50;17.50;;;;;;;;2;261078917;261078917;-83
2022/03/24 18:13:11;;;;;;;;;19.50;19.50;;;;;;;;2;261076322;261076322;-85
2022/03/24 18:22:13;;;;;;;;;20.00;20.00;;;;;;;;2;261080424;261080424;-84
2022/03/24 18:30:30;;;;;;;;;33.50;16.50;;;;;;;;2;261081572;261081572;-84
2022/03/24 18:39:30;;;;;;;;;27.00;27.00;;;;;;;;2;261083389;261083389;-84
2022/03/24 18:47:46;;;;;;;;;23.50;23.50;;;;;;;;2;261079702;261079702;-84
2022/03/24 18:56:46;;;;;;;;;47.00;31.00;;;;;;;;2;261076239;261076239;-84
2022/03/24 19:05:04;;;;;;;;;23.50;23.50;;;;;;;;2;261080529;261080529;-84
2022/03/24 19:14:05;;;;;;;;;39.50;27.00;;;;;;;;2;261083585;261083585;-84
2022/03/24 19:22:22;;;;;;;;;33.00;28.50;;;;;;;;2;261079995;261079995;-84
2022/03/24 19:31:23;;;;;;;;;31.50;30.50;;;;;;;;2;261079453;261079453;-84
2022/03/24 19:39:38;;;;;;;;;35.00;26.50;;;;;;;;2;261076133;261076133;-83
2022/03/24 19:48:41;;;;;;;;;48.50;38.50;;;;;;;;2;261085774;261085774;-83
2022/03/24 19:56:57;;;;;;;;;45.50;36.50;;;;;;;;2;261078570;261078570;-84
2022/03/24 20:05:57;;;;;;;;;47.00;31.50;;;;;;;;2;261079365;261079365;-83
2022/03/24 20:14:13;;;;;;;;;32.00;28.50;;;;;;;;2;261084498;261084498;-83
2022/03/24 20:23:13;;;;;;;;;44.00;35.50;;;;;;;;2;261077176;261077176;-83
2022/03/24 20:31:31;;;;;;;;;55.50;34.50;;;;;;;;2;261084760;261084760;-82
2022/03/24 20:40:34;;;;;;;;;55.00;37.00;;;;;;;;2;261079893;261079893;-87
2022/03/24 20:48:50;;;;;;;;;45.50;39.50;;;;;;;;2;261078923;261078923;-87
2022/03/24 20:57:51;;;;;;;;;54.00;35.00;;;;;;;;2;261078825;261078825;-84
2022/03/24 21:06:06;;;;;;;;;55.50;41.50;;;;;;;;2;261077770;261077770;-84
2022/03/24 21:15:07;;;;;;;;;49.50;33.50;;;;;;;;2;261078782;261078782;-84
2022/03/24 21:23:23;;;;;;;;;43.50;38.50;;;;;;;;2;261077628;261077628;-85
2022/03/24 21:32:23;;;;;;;;;50.00;40.50;;;;;;;;2;261076006;261076006;-83
2022/03/24 21:40:39;;;;;;;;;43.00;29.50;;;;;;;;2;261078561;261078561;-86
2022/03/24 21:49:40;;;;;;;;;39.00;35.00;;;;;;;;2;261084294;261084294;-87
2022/03/24 21:57:55;;;;;;;;;27.50;25.50;;;;;;;;2;261075165;261075165;-81
2022/03/24 22:06:56;;;;;;;;;37.50;34.50;;;;;;;;2;261080106;261080106;-84
2022/03/24 22:18:30;;;;;;;;;52.50;36.50;;;;;;;;2;261076442;261076442;-84
2022/03/24 22:27:31;;;;;;;;;42.00;36.50;;;;;;;;2;261097748;261097748;-84
2022/03/24 22:35:47;;;;;;;;;35.00;32.50;;;;;;;;2;261095112;261095112;-84
2022/03/24 22:44:47;;;;;;;;;34.50;23.50;;;;;;;;2;261098075;261098075;-84
2022/03/24 22:53:04;;;;;;;;;33.00;27.00;;;;;;;;2;261091030;261091030;-85
2022/03/24 23:02:05;;;;;;;;;28.00;26.50;;;;;;;;2;261093037;261093037;-85
2022/03/24 23:10:21;;;;;;;;;55.00;36.50;;;;;;;;2;261097532;261097532;-84
2022/03/24 23:19:21;;;;;;;;;46.50;39.00;;;;;;;;2;261093249;261093249;-85
2022/03/24 23:27:37;;;;;;;;;46.50;30.50;;;;;;;;2;261092615;261092615;-84
2022/03/24 23:36:37;;;;;;;;;52.50;37.00;;;;;;;;2;261092788;261092788;-85
2022/03/24 23:44:53;;;;;;;;;39.00;29.50;;;;;;;;2;261096064;261096064;-83
2022/03/24 23:53:53;;;;;;;;;49.50;37.50;;;;;;;;2;261091357;261091357;-83
